sensor_id;sensor_type;location;lat;lon;timestamp;pressure;altitude;pressure_sealevel;temperature
77414;BMP280;66486;49.992;19.164;2023-12-29T00:01:11;98795.50;;;6.85
77414;BMP280;66486;49.992;19.164;2023-12-29T00:03:41;98789.78;;;6.76
77414;BMP280;66486;49.992;19.164;2023-12-29T00:06:07;98790.91;;;6.72
77414;BMP280;66486;49.992;19.164;2023-12-29T00:08:33;98780.59;;;6.84
77414;BMP280;66486;49.992;19.164;2023-12-29T00:11:00;98776.38;;;6.83
77414;BMP280;66486;49.992;19.164;2023-12-29T00:13:26;98777.13;;;6.94
77414;BMP280;66486;49.992;19.164;2023-12-29T00:15:55;98769.91;;;6.84
77414;BMP280;66486;49.992;19.164;2023-12-29T00:18:21;98764.16;;;6.82
77414;BMP280;66486;49.992;19.164;2023-12-29T00:20:49;98752.69;;;6.82
77414;BMP280;66486;49.992;19.164;2023-12-29T00:23:15;98753.84;;;6.91
77414;BMP280;66486;49.992;19.164;2023-12-29T00:25:41;98741.25;;;6.92
77414;BMP280;66486;49.992;19.164;2023-12-29T00:28:08;98753.13;;;6.77
77414;BMP280;66486;49.992;19.164;2023-12-29T00:30:38;98748.56;;;6.77
77414;BMP280;66486;49.992;19.164;2023-12-29T00:33:05;98750.47;;;6.70
77414;BMP280;66486;49.992;19.164;2023-12-29T00:35:31;98748.56;;;6.70
77414;BMP280;66486;49.992;19.164;2023-12-29T00:38:04;98736.69;;;6.68
77414;BMP280;66486;49.992;19.164;2023-12-29T00:40:33;98738.22;;;6.72
77414;BMP280;66486;49.992;19.164;2023-12-29T00:43:01;98734.06;;;6.57
77414;BMP280;66486;49.992;19.164;2023-12-29T00:45:31;98733.72;;;6.52
77414;BMP280;66486;49.992;19.164;2023-12-29T00:48:02;98732.16;;;6.58
77414;BMP280;66486;49.992;19.164;2023-12-29T00:50:29;98737.09;;;6.77
77414;BMP280;66486;49.992;19.164;2023-12-29T00:52:55;98729.44;;;6.68
77414;BMP280;66486;49.992;19.164;2023-12-29T00:55:21;98731.34;;;6.71
77414;BMP280;66486;49.992;19.164;2023-12-29T00:57:47;98724.50;;;6.77
77414;BMP280;66486;49.992;19.164;2023-12-29T01:00:14;98732.50;;;6.77
77414;BMP280;66486;49.992;19.164;2023-12-29T01:02:40;98727.91;;;6.67
77414;BMP280;66486;49.992;19.164;2023-12-29T01:05:07;98731.75;;;6.73
77414;BMP280;66486;49.992;19.164;2023-12-29T01:07:34;98734.41;;;6.73
77414;BMP280;66486;49.992;19.164;2023-12-29T01:10:03;98739.41;;;6.64
77414;BMP280;66486;49.992;19.164;2023-12-29T01:12:29;98741.31;;;6.60
77414;BMP280;66486;49.992;19.164;2023-12-29T01:14:55;98737.91;;;6.60
77414;BMP280;66486;49.992;19.164;2023-12-29T01:17:27;98730.25;;;6.58
77414;BMP280;66486;49.992;19.164;2023-12-29T01:19:54;98742.06;;;6.61
77414;BMP280;66486;49.992;19.164;2023-12-29T01:22:24;98725.28;;;6.64
77414;BMP280;66486;49.992;19.164;2023-12-29T01:24:51;98721.47;;;6.61
77414;BMP280;66486;49.992;19.164;2023-12-29T01:27:17;98719.88;;;6.67
77414;BMP280;66486;49.992;19.164;2023-12-29T01:29:44;98723.00;;;6.59
77414;BMP280;66486;49.992;19.164;2023-12-29T01:32:11;98726.03;;;6.64
77414;BMP280;66486;49.992;19.164;2023-12-29T01:34:38;98717.97;;;6.75
77414;BMP280;66486;49.992;19.164;2023-12-29T01:37:04;98709.94;;;6.85
77414;BMP280;66486;49.992;19.164;2023-12-29T01:39:33;98715.25;;;6.92
77414;BMP280;66486;49.992;19.164;2023-12-29T01:42:03;98713.75;;;6.91
77414;BMP280;66486;49.992;19.164;2023-12-29T01:44:31;98709.50;;;6.94
77414;BMP280;66486;49.992;19.164;2023-12-29T01:47:05;98692.31;;;6.99
77414;BMP280;66486;49.992;19.164;2023-12-29T01:49:38;98688.44;;;7.07
77414;BMP280;66486;49.992;19.164;2023-12-29T01:52:05;98681.16;;;7.14
77414;BMP280;66486;49.992;19.164;2023-12-29T01:54:34;98675.81;;;7.11
77414;BMP280;66486;49.992;19.164;2023-12-29T01:57:04;98668.16;;;7.13
77414;BMP280;66486;49.992;19.164;2023-12-29T01:59:37;98664.72;;;7.09
77414;BMP280;66486;49.992;19.164;2023-12-29T02:02:04;98667.34;;;7.19
77414;BMP280;66486;49.992;19.164;2023-12-29T02:04:33;98666.13;;;7.31
77414;BMP280;66486;49.992;19.164;2023-12-29T02:06:59;98659.16;;;7.47
77414;BMP280;66486;49.992;19.164;2023-12-29T02:09:25;98649.91;;;7.52
77414;BMP280;66486;49.992;19.164;2023-12-29T02:11:53;98655.03;;;7.32
77414;BMP280;66486;49.992;19.164;2023-12-29T02:14:20;98655.13;;;7.18
77414;BMP280;66486;49.992;19.164;2023-12-29T02:17:10;98660.97;;;7.03
77414;BMP280;66486;49.992;19.164;2023-12-29T02:19:43;98659.50;;;6.87
77414;BMP280;66486;49.992;19.164;2023-12-29T02:22:10;98666.44;;;6.74
77414;BMP280;66486;49.992;19.164;2023-12-29T02:24:38;98658.03;;;6.69
77414;BMP280;66486;49.992;19.164;2023-12-29T02:30:40;98651.16;;;6.71
77414;BMP280;66486;49.992;19.164;2023-12-29T02:33:10;98650.84;;;6.66
77414;BMP280;66486;49.992;19.164;2023-12-29T02:35:41;98654.28;;;6.66
77414;BMP280;66486;49.992;19.164;2023-12-29T02:38:11;98643.47;;;6.84
77414;BMP280;66486;49.992;19.164;2023-12-29T02:40:38;98638.19;;;6.77
77414;BMP280;66486;49.992;19.164;2023-12-29T02:43:05;98647.75;;;6.74
77414;BMP280;66486;49.992;19.164;2023-12-29T02:45:31;98650.41;;;6.67
77414;BMP280;66486;49.992;19.164;2023-12-29T02:47:57;98650.06;;;6.58
77414;BMP280;66486;49.992;19.164;2023-12-29T02:50:23;98649.72;;;6.46
77414;BMP280;66486;49.992;19.164;2023-12-29T02:52:49;98639.03;;;6.46
77414;BMP280;66486;49.992;19.164;2023-12-29T02:55:16;98634.88;;;6.45
77414;BMP280;66486;49.992;19.164;2023-12-29T02:57:42;98624.59;;;6.32
77414;BMP280;66486;49.992;19.164;2023-12-29T03:00:11;98632.97;;;6.27
77414;BMP280;66486;49.992;19.164;2023-12-29T03:02:37;98626.16;;;6.23
77414;BMP280;66486;49.992;19.164;2023-12-29T03:05:04;98609.41;;;5.98
77414;BMP280;66486;49.992;19.164;2023-12-29T03:07:30;98621.22;;;6.04
77414;BMP280;66486;49.992;19.164;2023-12-29T03:09:56;98618.19;;;5.95
77414;BMP280;66486;49.992;19.164;2023-12-29T03:12:23;98609.81;;;5.86
77414;BMP280;66486;49.992;19.164;2023-12-29T03:14:49;98610.97;;;5.74
77414;BMP280;66486;49.992;19.164;2023-12-29T03:17:15;98605.63;;;5.85
77414;BMP280;66486;49.992;19.164;2023-12-29T03:19:42;98607.16;;;5.78
77414;BMP280;66486;49.992;19.164;2023-12-29T03:22:08;98599.16;;;5.71
77414;BMP280;66486;49.992;19.164;2023-12-29T03:24:35;98612.88;;;5.80
77414;BMP280;66486;49.992;19.164;2023-12-29T03:27:01;98598.78;;;5.62
77414;BMP280;66486;49.992;19.164;2023-12-29T03:29:27;98597.25;;;5.47
77414;BMP280;66486;49.992;19.164;2023-12-29T03:31:53;98591.53;;;5.45
77414;BMP280;66486;49.992;19.164;2023-12-29T03:34:19;98589.22;;;5.40
77414;BMP280;66486;49.992;19.164;2023-12-29T03:36:45;98590.00;;;5.30
77414;BMP280;66486;49.992;19.164;2023-12-29T03:39:12;98587.69;;;5.29
77414;BMP280;66486;49.992;19.164;2023-12-29T03:41:38;98588.84;;;5.17
77414;BMP280;66486;49.992;19.164;2023-12-29T03:44:04;98587.31;;;5.16
77414;BMP280;66486;49.992;19.164;2023-12-29T03:46:32;98576.69;;;5.19
77414;BMP280;66486;49.992;19.164;2023-12-29T03:48:59;98583.16;;;5.40
77414;BMP280;66486;49.992;19.164;2023-12-29T03:51:25;98578.56;;;5.61
77414;BMP280;66486;49.992;19.164;2023-12-29T03:53:51;98575.91;;;5.79
77414;BMP280;66486;49.992;19.164;2023-12-29T03:56:18;98578.53;;;5.97
77414;BMP280;66486;49.992;19.164;2023-12-29T03:58:45;98579.22;;;6.15
77414;BMP280;66486;49.992;19.164;2023-12-29T04:01:13;98575.03;;;6.17
77414;BMP280;66486;49.992;19.164;2023-12-29T04:03:40;98571.97;;;6.22
77414;BMP280;66486;49.992;19.164;2023-12-29T04:06:10;98578.00;;;6.44
77414;BMP280;66486;49.992;19.164;2023-12-29T04:08:39;98580.22;;;6.63
77414;BMP280;66486;49.992;19.164;2023-12-29T04:11:05;98575.19;;;6.72
77414;BMP280;66486;49.992;19.164;2023-12-29T04:13:32;98569.06;;;6.75
77414;BMP280;66486;49.992;19.164;2023-12-29T04:15:58;98577.41;;;6.84
77414;BMP280;66486;49.992;19.164;2023-12-29T04:18:26;98572.06;;;6.84
77414;BMP280;66486;49.992;19.164;2023-12-29T04:20:52;98567.78;;;6.94
77414;BMP280;66486;49.992;19.164;2023-12-29T04:23:18;98571.22;;;6.94
77414;BMP280;66486;49.992;19.164;2023-12-29T04:25:44;98560.16;;;6.92
77414;BMP280;66486;49.992;19.164;2023-12-29T04:28:11;98565.09;;;6.94
77414;BMP280;66486;49.992;19.164;2023-12-29T04:30:37;98562.13;;;6.88
77414;BMP280;66486;49.992;19.164;2023-12-29T04:33:03;98564.41;;;6.86
77414;BMP280;66486;49.992;19.164;2023-12-29T04:35:30;98570.94;;;6.78
77414;BMP280;66486;49.992;19.164;2023-12-29T04:37:56;98572.50;;;6.76
77414;BMP280;66486;49.992;19.164;2023-12-29T04:40:22;98567.16;;;6.72
77414;BMP280;66486;49.992;19.164;2023-12-29T04:42:49;98569.53;;;6.63
77414;BMP280;66486;49.992;19.164;2023-12-29T04:45:15;98577.91;;;6.62
77414;BMP280;66486;49.992;19.164;2023-12-29T04:47:41;98567.97;;;6.66
77414;BMP280;66486;49.992;19.164;2023-12-29T04:50:08;98562.66;;;6.62
77414;BMP280;66486;49.992;19.164;2023-12-29T04:52:34;98567.59;;;6.60
77414;BMP280;66486;49.992;19.164;2023-12-29T04:55:00;98564.19;;;6.60
77414;BMP280;66486;49.992;19.164;2023-12-29T04:57:27;98560.75;;;6.59
77414;BMP280;66486;49.992;19.164;2023-12-29T04:59:53;98564.16;;;6.56
77414;BMP280;66486;49.992;19.164;2023-12-29T05:02:19;98568.78;;;6.56
77414;BMP280;66486;49.992;19.164;2023-12-29T05:04:45;98556.53;;;6.65
77414;BMP280;66486;49.992;19.164;2023-12-29T05:07:12;98559.06;;;6.83
77414;BMP280;66486;49.992;19.164;2023-12-29T05:09:38;98560.88;;;6.96
77414;BMP280;66486;49.992;19.164;2023-12-29T05:12:06;98561.56;;;7.08
77414;BMP280;66486;49.992;19.164;2023-12-29T05:14:31;98571.41;;;7.25
77414;BMP280;66486;49.992;19.164;2023-12-29T05:16:58;98578.78;;;7.54
77414;BMP280;66486;49.992;19.164;2023-12-29T05:19:24;98561.88;;;7.65
77414;BMP280;66486;49.992;19.164;2023-12-29T05:21:50;98556.66;;;7.88
77414;BMP280;66486;49.992;19.164;2023-12-29T05:24:17;98563.06;;;7.97
77414;BMP280;66486;49.992;19.164;2023-12-29T05:26:44;98565.72;;;7.97
77414;BMP280;66486;49.992;19.164;2023-12-29T05:29:13;98584.41;;;8.04
77414;BMP280;66486;49.992;19.164;2023-12-29T05:31:40;98565.91;;;8.17
77414;BMP280;66486;49.992;19.164;2023-12-29T05:34:06;98565.47;;;8.19
77414;BMP280;66486;49.992;19.164;2023-12-29T05:36:36;98557.72;;;8.28
77414;BMP280;66486;49.992;19.164;2023-12-29T05:39:05;98553.13;;;8.28
77414;BMP280;66486;49.992;19.164;2023-12-29T05:41:32;98563.91;;;8.25
77414;BMP280;66486;49.992;19.164;2023-12-29T05:43:58;98568.03;;;8.29
77414;BMP280;66486;49.992;19.164;2023-12-29T05:46:25;98578.06;;;8.25
77414;BMP280;66486;49.992;19.164;2023-12-29T05:48:51;98574.16;;;8.30
77414;BMP280;66486;49.992;19.164;2023-12-29T05:51:18;98580.94;;;8.38
77414;BMP280;66486;49.992;19.164;2023-12-29T05:53:44;98582.88;;;8.37
77414;BMP280;66486;49.992;19.164;2023-12-29T05:56:12;98580.16;;;8.41
77414;BMP280;66486;49.992;19.164;2023-12-29T05:58:43;98588.44;;;8.53
77414;BMP280;66486;49.992;19.164;2023-12-29T06:01:10;98597.19;;;8.57
77414;BMP280;66486;49.992;19.164;2023-12-29T06:03:36;98586.91;;;8.52
77414;BMP280;66486;49.992;19.164;2023-12-29T06:06:03;98585.38;;;8.51
77414;BMP280;66486;49.992;19.164;2023-12-29T06:08:35;98593.97;;;8.39
77414;BMP280;66486;49.992;19.164;2023-12-29T06:11:03;98600.75;;;8.47
77414;BMP280;66486;49.992;19.164;2023-12-29T06:13:29;98588.06;;;8.51
77414;BMP280;66486;49.992;19.164;2023-12-29T06:15:57;98605.63;;;8.56
77414;BMP280;66486;49.992;19.164;2023-12-29T06:18:23;98599.53;;;8.52
77414;BMP280;66486;49.992;19.164;2023-12-29T06:20:49;98594.50;;;8.57
77414;BMP280;66486;49.992;19.164;2023-12-29T06:23:15;98607.97;;;8.81
77414;BMP280;66486;49.992;19.164;2023-12-29T06:25:43;98593.50;;;8.74
77414;BMP280;66486;49.992;19.164;2023-12-29T06:28:10;98590.09;;;8.97
77414;BMP280;66486;49.992;19.164;2023-12-29T06:30:39;98580.03;;;8.78
77414;BMP280;66486;49.992;19.164;2023-12-29T06:33:05;98599.16;;;8.80
77414;BMP280;66486;49.992;19.164;2023-12-29T06:35:37;98584.31;;;8.76
77414;BMP280;66486;49.992;19.164;2023-12-29T06:38:05;98570.78;;;8.83
77414;BMP280;66486;49.992;19.164;2023-12-29T06:40:34;98578.56;;;9.00
77414;BMP280;66486;49.992;19.164;2023-12-29T06:42:59;98568.63;;;8.97
77414;BMP280;66486;49.992;19.164;2023-12-29T06:45:27;98582.94;;;9.14
77414;BMP280;66486;49.992;19.164;2023-12-29T06:47:53;98571.50;;;9.10
77414;BMP280;66486;49.992;19.164;2023-12-29T06:50:19;98569.13;;;9.15
77414;BMP280;66486;49.992;19.164;2023-12-29T06:52:45;98564.63;;;9.09
77414;BMP280;66486;49.992;19.164;2023-12-29T06:55:17;98554.88;;;8.95
77414;BMP280;66486;49.992;19.164;2023-12-29T06:57:49;98554.81;;;8.99
77414;BMP280;66486;49.992;19.164;2023-12-29T07:00:16;98547.88;;;9.01
77414;BMP280;66486;49.992;19.164;2023-12-29T07:02:47;98552.44;;;9.04
77414;BMP280;66486;49.992;19.164;2023-12-29T07:05:14;98548.75;;;8.95
77414;BMP280;66486;49.992;19.164;2023-12-29T07:07:46;98549.22;;;8.90
77414;BMP280;66486;49.992;19.164;2023-12-29T07:10:13;98558.97;;;9.03
77414;BMP280;66486;49.992;19.164;2023-12-29T07:12:43;98572.50;;;8.96
77414;BMP280;66486;49.992;19.164;2023-12-29T07:15:12;98578.03;;;8.86
77414;BMP280;66486;49.992;19.164;2023-12-29T07:17:43;98583.13;;;9.03
77414;BMP280;66486;49.992;19.164;2023-12-29T07:20:13;98578.91;;;9.02
77414;BMP280;66486;49.992;19.164;2023-12-29T07:22:41;98582.81;;;8.98
77414;BMP280;66486;49.992;19.164;2023-12-29T07:25:09;98573.78;;;9.11
77414;BMP280;66486;49.992;19.164;2023-12-29T07:27:39;98577.59;;;9.14
77414;BMP280;66486;49.992;19.164;2023-12-29T07:30:17;98577.72;;;9.30
77414;BMP280;66486;49.992;19.164;2023-12-29T07:32:44;98585.97;;;9.39
77414;BMP280;66486;49.992;19.164;2023-12-29T07:35:25;98582.25;;;9.56
77414;BMP280;66486;49.992;19.164;2023-12-29T07:37:54;98575.44;;;9.52
77414;BMP280;66486;49.992;19.164;2023-12-29T07:40:24;98572.16;;;9.41
77414;BMP280;66486;49.992;19.164;2023-12-29T07:42:50;98576.28;;;9.45
77414;BMP280;66486;49.992;19.164;2023-12-29T07:45:20;98585.47;;;9.48
77414;BMP280;66486;49.992;19.164;2023-12-29T07:47:46;98593.00;;;9.56
77414;BMP280;66486;49.992;19.164;2023-12-29T07:50:13;98589.69;;;9.68
77414;BMP280;66486;49.992;19.164;2023-12-29T07:52:41;98595.13;;;9.65
77414;BMP280;66486;49.992;19.164;2023-12-29T07:55:08;98590.94;;;9.64
77414;BMP280;66486;49.992;19.164;2023-12-29T07:57:37;98590.38;;;9.72
77414;BMP280;66486;49.992;19.164;2023-12-29T08:00:05;98592.44;;;9.65
77414;BMP280;66486;49.992;19.164;2023-12-29T08:02:32;98591.97;;;9.70
77414;BMP280;66486;49.992;19.164;2023-12-29T08:05:00;98578.13;;;9.91
77414;BMP280;66486;49.992;19.164;2023-12-29T08:07:26;98574.81;;;9.83
77414;BMP280;66486;49.992;19.164;2023-12-29T08:09:54;98583.44;;;9.94
77414;BMP280;66486;49.992;19.164;2023-12-29T08:12:20;98573.03;;;9.96
77414;BMP280;66486;49.992;19.164;2023-12-29T08:14:46;98568.81;;;10.15
77414;BMP280;66486;49.992;19.164;2023-12-29T08:17:15;98578.41;;;10.16
77414;BMP280;66486;49.992;19.164;2023-12-29T08:19:52;98580.25;;;10.19
77414;BMP280;66486;49.992;19.164;2023-12-29T08:22:19;98574.09;;;10.38
77414;BMP280;66486;49.992;19.164;2023-12-29T08:24:47;98587.16;;;10.56
77414;BMP280;66486;49.992;19.164;2023-12-29T08:27:23;98590.97;;;10.58
77414;BMP280;66486;49.992;19.164;2023-12-29T08:29:53;98599.66;;;10.66
77414;BMP280;66486;49.992;19.164;2023-12-29T08:32:28;98588.22;;;10.78
77414;BMP280;66486;49.992;19.164;2023-12-29T08:35:03;98588.56;;;10.80
77414;BMP280;66486;49.992;19.164;2023-12-29T08:37:37;98586.44;;;10.88
77414;BMP280;66486;49.992;19.164;2023-12-29T08:40:09;98582.34;;;10.83
77414;BMP280;66486;49.992;19.164;2023-12-29T08:42:50;98583.75;;;10.72
77414;BMP280;66486;49.992;19.164;2023-12-29T08:45:40;98588.13;;;10.82
77414;BMP280;66486;49.992;19.164;2023-12-29T08:48:07;98582.66;;;10.69
77414;BMP280;66486;49.992;19.164;2023-12-29T08:50:33;98573.84;;;10.69
77414;BMP280;66486;49.992;19.164;2023-12-29T08:52:59;98588.94;;;10.62
77414;BMP280;66486;49.992;19.164;2023-12-29T08:55:31;98582.75;;;10.82
77414;BMP280;66486;49.992;19.164;2023-12-29T08:58:01;98580.03;;;10.82
77414;BMP280;66486;49.992;19.164;2023-12-29T09:00:37;98581.41;;;10.90
77414;BMP280;66486;49.992;19.164;2023-12-29T09:03:03;98580.63;;;10.89
77414;BMP280;66486;49.992;19.164;2023-12-29T09:05:37;98583.41;;;11.02
77414;BMP280;66486;49.992;19.164;2023-12-29T09:08:05;98582.19;;;11.06
77414;BMP280;66486;49.992;19.164;2023-12-29T09:10:35;98579.38;;;11.10
77414;BMP280;66486;49.992;19.164;2023-12-29T09:13:01;98582.16;;;11.22
77414;BMP280;66486;49.992;19.164;2023-12-29T09:15:31;98584.75;;;11.42
77414;BMP280;66486;49.992;19.164;2023-12-29T09:17:57;98590.63;;;11.37
77414;BMP280;66486;49.992;19.164;2023-12-29T09:20:29;98578.81;;;11.47
77414;BMP280;66486;49.992;19.164;2023-12-29T09:22:57;98579.84;;;11.37
77414;BMP280;66486;49.992;19.164;2023-12-29T09:25:25;98579.34;;;11.42
77414;BMP280;66486;49.992;19.164;2023-12-29T09:27:54;98594.09;;;11.38
77414;BMP280;66486;49.992;19.164;2023-12-29T09:30:23;98584.19;;;11.47
77414;BMP280;66486;49.992;19.164;2023-12-29T09:32:54;98579.75;;;11.41
77414;BMP280;66486;49.992;19.164;2023-12-29T09:35:24;98572.03;;;11.43
77414;BMP280;66486;49.992;19.164;2023-12-29T09:37:53;98572.59;;;11.50
77414;BMP280;66486;49.992;19.164;2023-12-29T09:40:20;98565.81;;;11.46
77414;BMP280;66486;49.992;19.164;2023-12-29T09:42:48;98574.19;;;11.48
77414;BMP280;66486;49.992;19.164;2023-12-29T09:45:24;98556.47;;;11.63
77414;BMP280;66486;49.992;19.164;2023-12-29T09:47:52;98567.19;;;11.79
77414;BMP280;66486;49.992;19.164;2023-12-29T09:50:23;98557.13;;;11.67
77414;BMP280;66486;49.992;19.164;2023-12-29T09:52:53;98541.06;;;11.63
77414;BMP280;66486;49.992;19.164;2023-12-29T09:55:23;98555.81;;;11.59
77414;BMP280;66486;49.992;19.164;2023-12-29T09:57:59;98550.22;;;11.66
77414;BMP280;66486;49.992;19.164;2023-12-29T10:00:29;98532.94;;;11.79
77414;BMP280;66486;49.992;19.164;2023-12-29T10:02:56;98541.00;;;11.79
77414;BMP280;66486;49.992;19.164;2023-12-29T10:05:27;98551.63;;;11.70
77414;BMP280;66486;49.992;19.164;2023-12-29T10:07:53;98544.03;;;11.81
77414;BMP280;66486;49.992;19.164;2023-12-29T10:10:23;98538.63;;;11.81
77414;BMP280;66486;49.992;19.164;2023-12-29T10:12:54;98526.00;;;11.78
77414;BMP280;66486;49.992;19.164;2023-12-29T10:18:17;98521.66;;;11.97
77414;BMP280;66486;49.992;19.164;2023-12-29T10:21:08;98516.47;;;11.90
77414;BMP280;66486;49.992;19.164;2023-12-29T10:26:19;98513.63;;;12.06
77414;BMP280;66486;49.992;19.164;2023-12-29T10:28:49;98506.09;;;12.14
77414;BMP280;66486;49.992;19.164;2023-12-29T10:31:17;98518.19;;;12.09
77414;BMP280;66486;49.992;19.164;2023-12-29T10:33:45;98511.28;;;12.08
77414;BMP280;66486;49.992;19.164;2023-12-29T10:36:22;98512.16;;;12.05
77414;BMP280;66486;49.992;19.164;2023-12-29T10:38:48;98513.44;;;12.13
77414;BMP280;66486;49.992;19.164;2023-12-29T10:41:25;98507.59;;;12.02
77414;BMP280;66486;49.992;19.164;2023-12-29T10:43:55;98517.66;;;12.14
77414;BMP280;66486;49.992;19.164;2023-12-29T10:46:31;98506.75;;;12.05
77414;BMP280;66486;49.992;19.164;2023-12-29T10:49:10;98517.31;;;12.00
77414;BMP280;66486;49.992;19.164;2023-12-29T10:51:41;98513.63;;;12.06
77414;BMP280;66486;49.992;19.164;2023-12-29T10:54:25;98510.31;;;12.02
77414;BMP280;66486;49.992;19.164;2023-12-29T10:57:04;98503.63;;;12.07
77414;BMP280;66486;49.992;19.164;2023-12-29T10:59:33;98506.53;;;12.00
77414;BMP280;66486;49.992;19.164;2023-12-29T11:02:03;98507.28;;;12.13
77414;BMP280;66486;49.992;19.164;2023-12-29T11:04:33;98504.19;;;12.02
77414;BMP280;66486;49.992;19.164;2023-12-29T11:07:02;98498.03;;;12.01
77414;BMP280;66486;49.992;19.164;2023-12-29T11:09:29;98484.53;;;12.01
77414;BMP280;66486;49.992;19.164;2023-12-29T11:12:13;98493.44;;;11.98
77414;BMP280;66486;49.992;19.164;2023-12-29T11:14:41;98492.75;;;11.98
77414;BMP280;66486;49.992;19.164;2023-12-29T11:17:14;98492.53;;;12.05
77414;BMP280;66486;49.992;19.164;2023-12-29T11:19:53;98501.75;;;11.91
77414;BMP280;66486;49.992;19.164;2023-12-29T11:22:21;98481.38;;;11.77
77414;BMP280;66486;49.992;19.164;2023-12-29T11:24:51;98487.75;;;11.83
77414;BMP280;66486;49.992;19.164;2023-12-29T11:27:25;98488.81;;;11.73
77414;BMP280;66486;49.992;19.164;2023-12-29T11:30:03;98470.94;;;11.79
77414;BMP280;66486;49.992;19.164;2023-12-29T11:32:47;98481.72;;;11.79
77414;BMP280;66486;49.992;19.164;2023-12-29T11:38:23;98488.59;;;11.80
77414;BMP280;66486;49.992;19.164;2023-12-29T11:43:42;98477.72;;;11.71
77414;BMP280;66486;49.992;19.164;2023-12-29T11:46:42;98484.72;;;11.81
77414;BMP280;66486;49.992;19.164;2023-12-29T11:49:15;98482.66;;;11.73
77414;BMP280;66486;49.992;19.164;2023-12-29T11:51:46;98489.25;;;11.84
77414;BMP280;66486;49.992;19.164;2023-12-29T11:54:27;98484.53;;;11.88
77414;BMP280;66486;49.992;19.164;2023-12-29T11:57:00;98490.13;;;11.81
77414;BMP280;66486;49.992;19.164;2023-12-29T11:59:47;98488.94;;;11.82
77414;BMP280;66486;49.992;19.164;2023-12-29T12:02:27;98497.03;;;11.82
77414;BMP280;66486;49.992;19.164;2023-12-29T12:04:57;98500.03;;;11.72
77414;BMP280;66486;49.992;19.164;2023-12-29T12:09:51;98496.03;;;11.76
77414;BMP280;66486;49.992;19.164;2023-12-29T12:12:40;98494.41;;;11.66
77414;BMP280;66486;49.992;19.164;2023-12-29T12:18:00;98492.78;;;11.69
77414;BMP280;66486;49.992;19.164;2023-12-29T12:20:26;98496.03;;;11.76
77414;BMP280;66486;49.992;19.164;2023-12-29T12:23:01;98485.72;;;11.75
77414;BMP280;66486;49.992;19.164;2023-12-29T12:25:31;98481.47;;;11.74
77414;BMP280;66486;49.992;19.164;2023-12-29T12:28:13;98487.03;;;11.83
77414;BMP280;66486;49.992;19.164;2023-12-29T12:30:43;98496.03;;;11.76
77414;BMP280;66486;49.992;19.164;2023-12-29T12:33:09;98499.47;;;11.64
77414;BMP280;66486;49.992;19.164;2023-12-29T12:35:39;98505.41;;;11.72
77414;BMP280;66486;49.992;19.164;2023-12-29T12:38:14;98503.84;;;11.58
77414;BMP280;66486;49.992;19.164;2023-12-29T12:40:50;98510.56;;;11.66
77414;BMP280;66486;49.992;19.164;2023-12-29T12:43:17;98502.44;;;11.82
77414;BMP280;66486;49.992;19.164;2023-12-29T12:45:55;98486.81;;;11.90
77414;BMP280;66486;49.992;19.164;2023-12-29T12:48:42;98485.50;;;11.82
77414;BMP280;66486;49.992;19.164;2023-12-29T12:51:10;98482.66;;;11.73
77414;BMP280;66486;49.992;19.164;2023-12-29T12:53:41;98501.53;;;11.73
77414;BMP280;66486;49.992;19.164;2023-12-29T12:56:13;98489.44;;;11.77
77414;BMP280;66486;49.992;19.164;2023-12-29T12:58:40;98494.97;;;11.61
77414;BMP280;66486;49.992;19.164;2023-12-29T13:01:07;98492.31;;;11.58
77414;BMP280;66486;49.992;19.164;2023-12-29T13:03:33;98490.41;;;11.71
77414;BMP280;66486;49.992;19.164;2023-12-29T13:06:03;98494.41;;;11.66
77414;BMP280;66486;49.992;19.164;2023-12-29T13:08:33;98484.81;;;11.78
77414;BMP280;66486;49.992;19.164;2023-12-29T13:11:02;98499.25;;;11.71
77414;BMP280;66486;49.992;19.164;2023-12-29T13:13:42;98496.56;;;11.71
77414;BMP280;66486;49.992;19.164;2023-12-29T13:16:09;98492.25;;;11.61
77414;BMP280;66486;49.992;19.164;2023-12-29T13:18:35;98491.91;;;11.47
77414;BMP280;66486;49.992;19.164;2023-12-29T13:21:03;98490.66;;;11.48
77414;BMP280;66486;49.992;19.164;2023-12-29T13:23:32;98493.91;;;11.43
77414;BMP280;66486;49.992;19.164;2023-12-29T13:26:02;98487.13;;;11.38
77414;BMP280;66486;49.992;19.164;2023-12-29T13:28:35;98486.91;;;11.45
77414;BMP280;66486;49.992;19.164;2023-12-29T13:31:04;98497.88;;;11.38
77414;BMP280;66486;49.992;19.164;2023-12-29T13:34:02;98498.66;;;11.39
77414;BMP280;66486;49.992;19.164;2023-12-29T13:36:43;98497.72;;;11.29
77414;BMP280;66486;49.992;19.164;2023-12-29T13:39:28;98482.78;;;11.28
77414;BMP280;66486;49.992;19.164;2023-12-29T13:41:58;98491.38;;;11.23
77414;BMP280;66486;49.992;19.164;2023-12-29T13:44:29;98494.81;;;11.23
77414;BMP280;66486;49.992;19.164;2023-12-29T13:46:58;98497.41;;;11.27
77414;BMP280;66486;49.992;19.164;2023-12-29T13:49:25;98494.34;;;11.25
77414;BMP280;66486;49.992;19.164;2023-12-29T13:51:59;98500.97;;;11.08
77414;BMP280;66486;49.992;19.164;2023-12-29T13:54:43;98496.09;;;11.03
77414;BMP280;66486;49.992;19.164;2023-12-29T13:57:12;98498.72;;;10.90
77414;BMP280;66486;49.992;19.164;2023-12-29T13:59:39;98498.03;;;11.02
77414;BMP280;66486;49.992;19.164;2023-12-29T14:02:31;98502.16;;;11.07
77414;BMP280;66486;49.992;19.164;2023-12-29T14:05:23;98503.09;;;11.00
77414;BMP280;66486;49.992;19.164;2023-12-29T14:07:59;98505.72;;;10.88
77414;BMP280;66486;49.992;19.164;2023-12-29T14:10:33;98499.25;;;10.85
77414;BMP280;66486;49.992;19.164;2023-12-29T14:13:13;98498.34;;;10.76
77414;BMP280;66486;49.992;19.164;2023-12-29T14:15:45;98501.03;;;10.92
77414;BMP280;66486;49.992;19.164;2023-12-29T14:18:55;98507.75;;;10.68
77414;BMP280;66486;49.992;19.164;2023-12-29T14:21:30;98504.03;;;10.78
77414;BMP280;66486;49.992;19.164;2023-12-29T14:26:30;98509.66;;;10.67
77414;BMP280;66486;49.992;19.164;2023-12-29T14:31:32;98510.88;;;10.66
77414;BMP280;66486;49.992;19.164;2023-12-29T14:34:05;98505.53;;;10.46
77414;BMP280;66486;49.992;19.164;2023-12-29T14:36:36;98507.47;;;10.46
77414;BMP280;66486;49.992;19.164;2023-12-29T14:39:03;98519.25;;;10.36
77414;BMP280;66486;49.992;19.164;2023-12-29T14:41:35;98522.97;;;10.22
77414;BMP280;66486;49.992;19.164;2023-12-29T14:44:05;98516.34;;;10.27